createdAt,value
2023-01-19T00:00:39.654Z,11.57
2023-01-19T00:03:16.320Z,14.20
2023-01-19T00:05:44.566Z,13.38
2023-01-19T00:08:15.696Z,16.13
2023-01-19T00:10:45.979Z,13.25
2023-01-19T00:13:14.736Z,11.32
2023-01-19T00:15:41.720Z,10.70
2023-01-19T00:18:10.547Z,14.07
2023-01-19T00:20:41.353Z,11.43
2023-01-19T00:23:09.500Z,12.48
2023-01-19T00:25:42.493Z,9.90
2023-01-19T00:28:15.918Z,10.82
2023-01-19T00:30:43.811Z,12.68
2023-01-19T00:33:15.473Z,12.90
2023-01-19T00:35:42.735Z,11.30
2023-01-19T00:38:11.943Z,11.75
2023-01-19T00:40:38.842Z,10.85
2023-01-19T00:43:05.776Z,12.35
2023-01-19T00:45:33.611Z,14.23
2023-01-19T00:48:00.549Z,11.68
2023-01-19T00:50:29.878Z,10.55
2023-01-19T00:52:58.287Z,11.30
2023-01-19T00:55:25.344Z,8.85
2023-01-19T00:57:52.234Z,14.20
2023-01-19T01:00:20.276Z,9.80
2023-01-19T01:02:50.234Z,11.52
2023-01-19T01:05:18.101Z,12.80
2023-01-19T01:07:46.137Z,11.75
2023-01-19T01:10:23.310Z,12.27
2023-01-19T01:12:57.399Z,9.75
2023-01-19T01:15:29.927Z,14.95
2023-01-19T01:17:56.918Z,13.30
2023-01-19T01:20:28.670Z,17.60
2023-01-19T01:22:57.714Z,11.73
2023-01-19T01:25:27.630Z,11.80
2023-01-19T01:27:55.510Z,11.93
2023-01-19T01:30:22.752Z,10.05
2023-01-19T01:32:50.193Z,13.70
2023-01-19T01:35:17.375Z,10.82
2023-01-19T01:37:44.738Z,12.65
2023-01-19T01:40:15.873Z,10.52
2023-01-19T01:42:42.957Z,9.63
2023-01-19T01:45:39.482Z,12.45
2023-01-19T01:48:30.402Z,16.35
2023-01-19T01:51:25.940Z,11.10
2023-01-19T01:54:03.481Z,12.25
2023-01-19T01:56:42.503Z,11.63
2023-01-19T01:59:26.847Z,12.15
2023-01-19T02:02:25.565Z,14.25
2023-01-19T02:05:04.795Z,10.05
2023-01-19T02:08:19.808Z,11.27
2023-01-19T02:11:06.785Z,13.40
2023-01-19T02:13:39.880Z,13.80
2023-01-19T02:16:09.244Z,12.07
2023-01-19T02:18:37.510Z,10.25
2023-01-19T02:21:12.782Z,11.73
2023-01-19T02:23:45.385Z,14.48
2023-01-19T02:28:57.605Z,15.02
2023-01-19T02:31:27.301Z,16.02
2023-01-19T02:33:55.967Z,15.32
2023-01-19T02:36:38.367Z,13.82
2023-01-19T02:39:09.742Z,12.13
2023-01-19T02:41:48.993Z,12.73
2023-01-19T02:44:19.938Z,15.25
2023-01-19T02:46:47.471Z,12.43
2023-01-19T02:49:14.575Z,13.75
2023-01-19T02:51:44.505Z,11.88
2023-01-19T02:54:32.490Z,16.90
2023-01-19T02:57:23.913Z,15.93
2023-01-19T03:00:28.732Z,15.35
2023-01-19T03:03:08.004Z,14.65
2023-01-19T03:05:45.623Z,17.85
2023-01-19T03:08:38.396Z,15.88
2023-01-19T03:11:12.663Z,17.10
2023-01-19T03:14:04.054Z,17.27
2023-01-19T03:16:45.604Z,17.10
2023-01-19T03:19:44.159Z,14.98
2023-01-19T03:22:28.387Z,15.68
2023-01-19T03:25:01.757Z,15.13
2023-01-19T03:27:35.224Z,13.35
2023-01-19T03:30:13.143Z,13.82
2023-01-19T03:32:53.317Z,16.08
2023-01-19T03:35:24.588Z,9.55
2023-01-19T03:37:55.912Z,12.45
2023-01-19T03:40:30.298Z,14.40
2023-01-19T03:42:58.844Z,11.75
2023-01-19T03:45:26.887Z,10.38
2023-01-19T03:47:55.441Z,10.25
2023-01-19T03:50:29.598Z,9.25
2023-01-19T03:53:13.531Z,9.82
2023-01-19T03:55:46.469Z,11.15
2023-01-19T03:58:13.636Z,10.55
2023-01-19T04:00:40.772Z,9.90
2023-01-19T04:03:14.612Z,8.63
2023-01-19T04:05:41.929Z,9.35
2023-01-19T04:08:08.924Z,9.52
2023-01-19T04:10:36.844Z,7.60
2023-01-19T04:13:04.965Z,7.75
2023-01-19T04:15:32.628Z,7.85
2023-01-19T04:18:02.539Z,9.20
2023-01-19T04:20:29.750Z,7.50
2023-01-19T04:23:01.095Z,7.38
2023-01-19T04:25:29.133Z,7.60
2023-01-19T04:27:58.256Z,5.18
2023-01-19T04:30:27.416Z,6.97
2023-01-19T04:32:55.517Z,4.75
2023-01-19T04:35:23.665Z,5.45
2023-01-19T04:37:50.599Z,4.43
2023-01-19T04:40:17.617Z,6.15
2023-01-19T04:42:46.035Z,4.82
2023-01-19T04:45:14.042Z,5.60
2023-01-19T04:47:42.784Z,5.03
2023-01-19T04:50:11.428Z,5.00
2023-01-19T04:52:38.453Z,3.53
2023-01-19T04:55:06.885Z,3.90
2023-01-19T04:57:33.840Z,3.38
2023-01-19T05:00:01.168Z,2.92
2023-01-19T05:02:28.144Z,3.08
2023-01-19T05:04:54.956Z,2.15
2023-01-19T05:07:21.821Z,1.55
2023-01-19T05:09:48.707Z,2.55
2023-01-19T05:12:16.445Z,2.13
2023-01-19T05:14:43.571Z,2.30
2023-01-19T05:17:10.992Z,1.70
2023-01-19T05:19:39.012Z,2.22
2023-01-19T05:22:07.284Z,1.77
2023-01-19T05:24:34.164Z,1.80
2023-01-19T05:27:01.934Z,2.40
2023-01-19T05:29:28.794Z,1.90
2023-01-19T05:31:55.790Z,1.92
2023-01-19T05:34:22.619Z,2.22
2023-01-19T05:36:49.524Z,2.35
2023-01-19T05:39:16.389Z,2.50
2023-01-19T05:41:45.422Z,2.92
2023-01-19T05:44:13.017Z,3.67
2023-01-19T05:46:40.869Z,3.17
2023-01-19T05:49:10.141Z,3.70
2023-01-19T05:51:45.153Z,3.83
2023-01-19T05:54:15.411Z,3.75
2023-01-19T05:56:43.400Z,4.03
2023-01-19T05:59:10.961Z,3.75
2023-01-19T06:01:39.824Z,3.90
2023-01-19T06:04:08.965Z,4.57
2023-01-19T06:06:35.840Z,4.30
2023-01-19T06:09:02.675Z,4.20
2023-01-19T06:11:29.565Z,5.35
2023-01-19T06:13:56.336Z,5.57
2023-01-19T06:16:23.283Z,4.25
2023-01-19T06:18:50.097Z,6.20
2023-01-19T06:21:17.077Z,5.25
2023-01-19T06:23:43.935Z,6.10
2023-01-19T06:26:11.368Z,4.18
2023-01-19T06:28:38.237Z,3.75
2023-01-19T06:31:05.367Z,5.95
2023-01-19T06:33:32.279Z,5.30
2023-01-19T06:35:59.513Z,6.13
2023-01-19T06:38:26.478Z,4.72
2023-01-19T06:40:58.978Z,3.75
2023-01-19T06:43:27.158Z,4.80
2023-01-19T06:45:54.818Z,4.63
2023-01-19T06:48:22.378Z,4.40
2023-01-19T06:50:50.157Z,6.85
2023-01-19T06:53:19.811Z,5.68
2023-01-19T06:55:47.059Z,8.68
2023-01-19T06:58:14.240Z,7.00
2023-01-19T07:00:41.384Z,8.23
2023-01-19T07:03:09.102Z,10.20
2023-01-19T07:05:36.649Z,8.68
2023-01-19T07:08:04.358Z,9.88
2023-01-19T07:11:23.673Z,11.45
2023-01-19T07:13:18.551Z,12.75
2023-01-19T07:15:45.436Z,10.48
2023-01-19T07:18:12.447Z,13.48
2023-01-19T07:20:39.392Z,16.88
2023-01-19T07:23:06.278Z,15.90
2023-01-19T07:25:33.175Z,12.73
2023-01-19T07:28:00.702Z,20.02
2023-01-19T07:30:28.791Z,16.40
2023-01-19T07:32:58.075Z,16.10
2023-01-19T07:35:26.127Z,18.48
2023-01-19T07:37:53.067Z,12.98
2023-01-19T07:40:19.967Z,20.02
2023-01-19T07:42:52.052Z,11.45
2023-01-19T07:45:20.951Z,16.15
2023-01-19T07:47:49.763Z,17.88
2023-01-19T07:50:21.410Z,16.77
2023-01-19T07:52:53.434Z,12.70
2023-01-19T07:55:20.844Z,20.05
2023-01-19T07:57:52.003Z,15.35
2023-01-19T08:00:22.093Z,20.85
2023-01-19T08:02:51.887Z,17.38
2023-01-19T08:05:20.554Z,17.30
2023-01-19T08:07:48.384Z,15.95
2023-01-19T08:10:18.480Z,19.23
2023-01-19T08:12:45.293Z,24.80
2023-01-19T08:15:12.253Z,12.63
2023-01-19T08:17:39.090Z,20.00
2023-01-19T08:20:08.636Z,20.58
2023-01-19T08:22:35.643Z,18.08
2023-01-19T08:25:02.577Z,13.43
2023-01-19T08:27:30.761Z,20.85
2023-01-19T08:29:58.907Z,17.40
2023-01-19T08:32:25.833Z,16.10
2023-01-19T08:34:52.677Z,13.40
2023-01-19T08:37:19.555Z,14.90
2023-01-19T08:39:46.432Z,14.68
2023-01-19T08:42:13.239Z,21.17
2023-01-19T08:44:49.704Z,16.27
2023-01-19T08:47:23.816Z,18.48
2023-01-19T08:49:50.671Z,15.48
2023-01-19T08:52:17.486Z,13.98
2023-01-19T08:54:44.349Z,14.02
2023-01-19T08:57:11.241Z,12.45
2023-01-19T08:59:38.216Z,15.75
2023-01-19T09:02:05.007Z,12.90
2023-01-19T09:04:34.475Z,15.13
2023-01-19T09:07:01.545Z,17.52
2023-01-19T09:09:28.464Z,19.40
2023-01-19T09:11:56.380Z,18.35
2023-01-19T09:14:23.278Z,23.02
2023-01-19T09:16:50.147Z,15.48
2023-01-19T09:19:17.051Z,17.73
2023-01-19T09:21:43.916Z,21.08
2023-01-19T09:24:10.840Z,23.50
2023-01-19T09:26:39.235Z,19.45
2023-01-19T09:29:06.184Z,22.35
2023-01-19T09:31:33.102Z,18.85
2023-01-19T09:34:00.022Z,21.92
2023-01-19T09:36:27.548Z,25.63
2023-01-19T09:38:54.399Z,22.75
2023-01-19T09:41:22.831Z,22.42
2023-01-19T09:44:00.990Z,19.60
2023-01-19T09:46:41.465Z,21.92
2023-01-19T09:49:31.536Z,20.48
2023-01-19T09:51:59.359Z,24.05
2023-01-19T09:54:55.123Z,28.17
2023-01-19T09:57:25.235Z,20.80
2023-01-19T09:59:57.905Z,21.00
2023-01-19T10:02:24.923Z,19.13
2023-01-19T10:05:26.298Z,32.22
2023-01-19T10:08:46.609Z,24.40
2023-01-19T10:11:52.695Z,23.23
2023-01-19T10:14:44.572Z,20.20
2023-01-19T10:17:45.205Z,20.50
2023-01-19T10:20:28.187Z,18.35
2023-01-19T10:22:59.332Z,21.38
2023-01-19T10:25:27.932Z,17.00
2023-01-19T10:27:54.943Z,17.58
2023-01-19T10:30:26.266Z,20.60
2023-01-19T10:32:53.776Z,17.80
2023-01-19T10:35:25.182Z,21.67
2023-01-19T10:38:02.898Z,16.15
2023-01-19T10:40:53.670Z,18.05
2023-01-19T10:43:35.649Z,17.52
2023-01-19T10:46:08.178Z,16.88
2023-01-19T10:51:11.139Z,13.90
2023-01-19T10:53:38.571Z,21.40
2023-01-19T10:56:16.335Z,14.85
2023-01-19T10:58:43.459Z,18.00
2023-01-19T11:01:27.187Z,17.15
2023-01-19T11:04:00.072Z,13.90
2023-01-19T11:06:30.108Z,14.48
2023-01-19T11:09:16.081Z,15.73
2023-01-19T11:11:52.638Z,15.77
2023-01-19T11:14:34.610Z,13.55
2023-01-19T11:17:01.533Z,14.13
2023-01-19T11:19:33.014Z,11.98
2023-01-19T11:22:27.479Z,12.05
2023-01-19T11:25:03.656Z,15.38
2023-01-19T11:27:36.122Z,10.93
2023-01-19T11:30:22.838Z,7.82
2023-01-19T11:32:49.702Z,10.25
2023-01-19T11:35:36.684Z,10.77
2023-01-19T11:38:20.889Z,11.07
2023-01-19T11:40:58.235Z,13.02
2023-01-19T11:43:39.821Z,8.25
2023-01-19T11:46:16.729Z,8.05
2023-01-19T11:49:02.844Z,10.70
2023-01-19T11:52:01.404Z,11.05
2023-01-19T11:54:52.272Z,11.55
2023-01-19T11:57:20.148Z,10.20
2023-01-19T11:59:47.364Z,9.70
2023-01-19T12:02:36.234Z,11.40
2023-01-19T12:05:13.193Z,12.02
2023-01-19T12:07:42.640Z,12.00
2023-01-19T12:10:31.419Z,10.50
2023-01-19T12:12:59.318Z,12.43
2023-01-19T12:15:41.931Z,9.57
2023-01-19T12:18:20.996Z,10.25
2023-01-19T12:20:53.167Z,9.43
2023-01-19T12:23:55.977Z,10.43
2023-01-19T12:26:49.425Z,10.88
2023-01-19T12:29:21.933Z,11.65
2023-01-19T12:34:44.196Z,9.52
2023-01-19T12:37:40.507Z,10.98
2023-01-19T12:40:26.122Z,11.05
2023-01-19T12:43:03.235Z,7.65
2023-01-19T12:45:39.902Z,7.28
2023-01-19T12:48:25.231Z,9.68
2023-01-19T12:50:52.444Z,10.25
2023-01-19T12:53:22.556Z,11.48
2023-01-19T12:56:01.067Z,10.35
2023-01-19T12:58:28.864Z,11.77
2023-01-19T13:01:34.270Z,10.95
2023-01-19T13:04:32.612Z,8.68
2023-01-19T13:07:05.788Z,8.18
2023-01-19T13:09:38.572Z,8.57
2023-01-19T13:12:14.428Z,8.27
2023-01-19T13:14:43.427Z,9.57
2023-01-19T13:17:26.501Z,8.50
2023-01-19T13:20:19.191Z,5.63
2023-01-19T13:23:34.138Z,6.63
2023-01-19T13:26:15.435Z,9.27
2023-01-19T13:28:48.287Z,8.70
2023-01-19T13:31:16.368Z,8.35
2023-01-19T13:33:59.045Z,7.35
2023-01-19T13:36:37.535Z,8.63
2023-01-19T13:39:16.570Z,10.07
2023-01-19T13:41:47.411Z,9.65
2023-01-19T13:44:27.480Z,7.03
2023-01-19T13:46:59.879Z,7.25
2023-01-19T13:49:33.672Z,9.45
2023-01-19T13:52:19.221Z,8.02
2023-01-19T13:55:02.458Z,7.30
2023-01-19T13:57:43.809Z,6.65
2023-01-19T14:00:16.593Z,8.20
2023-01-19T14:03:04.885Z,6.25
2023-01-19T14:05:38.098Z,9.07
2023-01-19T14:08:13.606Z,8.98
2023-01-19T14:11:02.532Z,9.38
2023-01-19T14:13:34.872Z,8.38
2023-01-19T14:16:08.652Z,9.10
2023-01-19T14:18:36.689Z,9.95
2023-01-19T14:21:11.856Z,9.57
2023-01-19T14:24:17.104Z,11.55
2023-01-19T14:26:49.154Z,11.57
2023-01-19T14:29:32.745Z,8.93
2023-01-19T14:32:25.190Z,12.93
2023-01-19T14:35:07.248Z,9.43
2023-01-19T14:37:38.219Z,12.45
2023-01-19T14:40:25.380Z,14.02
2023-01-19T14:43:06.273Z,11.55
2023-01-19T14:45:47.427Z,11.05
2023-01-19T14:48:21.801Z,12.75
2023-01-19T14:51:02.800Z,13.18
2023-01-19T14:53:37.540Z,16.17
2023-01-19T14:56:06.801Z,12.32
2023-01-19T14:58:49.561Z,12.94
2023-01-19T15:01:16.481Z,12.18
2023-01-19T15:03:45.427Z,13.18
2023-01-19T15:06:18.068Z,14.20
2023-01-19T15:08:46.195Z,9.15
2023-01-19T15:11:34.011Z,15.32
2023-01-19T15:14:02.386Z,11.10
2023-01-19T15:16:33.124Z,11.30
2023-01-19T15:19:00.575Z,17.70
2023-01-19T15:21:27.619Z,12.65
2023-01-19T15:23:55.438Z,12.25
2023-01-19T15:26:26.354Z,13.35
2023-01-19T15:28:55.713Z,15.05
2023-01-19T15:31:26.147Z,14.20
2023-01-19T15:33:53.192Z,11.63
2023-01-19T15:36:24.566Z,12.85
2023-01-19T15:38:51.486Z,17.85
2023-01-19T15:41:28.671Z,13.35
2023-01-19T15:43:57.401Z,10.98
2023-01-19T15:46:25.875Z,17.00
2023-01-19T15:48:53.998Z,17.65
2023-01-19T15:51:27.741Z,10.10
2023-01-19T15:53:55.932Z,15.80
2023-01-19T15:56:27.185Z,17.75
2023-01-19T15:58:55.837Z,14.73
2023-01-19T16:01:34.025Z,14.10
2023-01-19T16:04:07.124Z,12.05
2023-01-19T16:06:34.242Z,10.52
2023-01-19T16:09:01.764Z,21.17
2023-01-19T16:11:32.066Z,15.55
2023-01-19T16:13:59.172Z,10.60
2023-01-19T16:16:28.092Z,14.80
2023-01-19T16:18:56.210Z,14.35
2023-01-19T16:21:24.068Z,13.23
2023-01-19T16:23:51.128Z,13.50
2023-01-19T16:26:34.399Z,13.85
2023-01-19T16:29:08.770Z,15.43
2023-01-19T16:31:41.638Z,17.58
2023-01-19T16:34:09.796Z,15.05
2023-01-19T16:36:40.493Z,12.50
2023-01-19T16:39:12.759Z,11.82
2023-01-19T16:41:40.912Z,15.93
2023-01-19T16:44:09.844Z,12.30
2023-01-19T16:46:40.895Z,12.30
2023-01-19T16:49:15.698Z,14.93
2023-01-19T16:51:43.036Z,10.80
2023-01-19T16:54:14.823Z,12.43
2023-01-19T16:56:42.328Z,12.07
2023-01-19T16:59:14.335Z,11.48
2023-01-19T17:01:44.514Z,13.02
2023-01-19T17:04:13.497Z,15.52
2023-01-19T17:06:40.585Z,14.38
2023-01-19T17:09:09.459Z,13.77
2023-01-19T17:11:37.372Z,9.25
2023-01-19T17:14:15.682Z,10.13
2023-01-19T17:16:43.910Z,14.13
2023-01-19T17:19:16.589Z,11.40
2023-01-19T17:21:51.314Z,9.45
2023-01-19T17:24:18.976Z,9.43
2023-01-19T17:26:49.643Z,9.90
2023-01-19T17:29:17.021Z,13.30
2023-01-19T17:31:44.433Z,9.85
2023-01-19T17:34:11.402Z,14.43
2023-01-19T17:36:38.427Z,15.50
2023-01-19T17:39:09.033Z,13.75
2023-01-19T17:41:36.274Z,13.00
2023-01-19T17:44:05.638Z,15.48
2023-01-19T17:46:37.318Z,13.43
2023-01-19T17:49:07.462Z,11.65
2023-01-19T17:51:35.043Z,11.25
2023-01-19T17:54:01.839Z,9.80
2023-01-19T17:56:36.686Z,11.43
2023-01-19T17:59:06.565Z,13.02
2023-01-19T18:01:37.121Z,13.30
2023-01-19T18:04:04.187Z,13.70
2023-01-19T18:06:31.001Z,10.32
2023-01-19T18:09:01.481Z,10.27
2023-01-19T18:11:29.099Z,15.82
2023-01-19T18:13:56.399Z,12.02
2023-01-19T18:16:27.410Z,14.90
2023-01-19T18:18:56.859Z,15.77
2023-01-19T18:21:28.259Z,15.20
2023-01-19T18:24:05.345Z,14.00
2023-01-19T18:26:34.946Z,17.45
2023-01-19T18:29:01.910Z,19.10
2023-01-19T18:31:28.910Z,16.08
2023-01-19T18:33:55.884Z,13.90
2023-01-19T18:36:23.073Z,17.02
2023-01-19T18:38:50.157Z,13.27
2023-01-19T18:41:20.737Z,11.02
2023-01-19T18:43:48.767Z,14.15
2023-01-19T18:46:16.300Z,13.35
2023-01-19T18:48:43.597Z,14.57
2023-01-19T18:51:15.299Z,14.50
2023-01-19T18:53:43.435Z,15.25
2023-01-19T18:56:15.773Z,12.77
2023-01-19T18:58:44.074Z,13.80
2023-01-19T19:01:32.539Z,13.40
2023-01-19T19:04:00.138Z,11.93
2023-01-19T19:06:27.585Z,13.95
2023-01-19T19:08:58.015Z,11.25
2023-01-19T19:11:26.524Z,13.70
2023-01-19T19:13:56.365Z,14.80
2023-01-19T19:16:24.273Z,14.75
2023-01-19T19:18:51.159Z,16.08
2023-01-19T19:21:21.213Z,10.95
2023-01-19T19:23:54.425Z,17.55
2023-01-19T19:26:23.002Z,16.20
2023-01-19T19:28:49.865Z,16.15
2023-01-19T19:31:21.051Z,17.98
2023-01-19T19:33:50.921Z,12.95
2023-01-19T19:36:18.764Z,13.45
2023-01-19T19:38:47.567Z,12.35
2023-01-19T19:41:22.127Z,13.90
2023-01-19T19:43:49.862Z,12.02
2023-01-19T19:46:20.152Z,11.65
2023-01-19T19:48:48.738Z,14.68
2023-01-19T19:51:23.606Z,9.98
2023-01-19T19:53:51.814Z,9.60
2023-01-19T19:56:22.336Z,10.18
2023-01-19T19:58:51.454Z,8.38
2023-01-19T20:01:25.353Z,17.30
2023-01-19T20:03:54.237Z,6.97
2023-01-19T20:06:24.957Z,13.05
2023-01-19T20:08:55.092Z,19.17
2023-01-19T20:11:28.505Z,15.48
2023-01-19T20:13:55.455Z,16.95
2023-01-19T20:16:23.821Z,14.10
2023-01-19T20:18:54.245Z,15.27
2023-01-19T20:21:36.449Z,11.98
2023-01-19T20:24:09.739Z,12.52
2023-01-19T20:26:42.277Z,11.75
2023-01-19T20:29:11.070Z,13.55
2023-01-19T20:31:43.817Z,13.32
2023-01-19T20:34:14.386Z,13.63
2023-01-19T20:36:42.300Z,18.83
2023-01-19T20:39:10.984Z,9.32
2023-01-19T20:41:43.682Z,9.48
2023-01-19T20:44:20.856Z,15.10
2023-01-19T20:46:48.726Z,19.00
2023-01-19T20:49:16.054Z,17.98
2023-01-19T20:51:45.195Z,17.67
2023-01-19T20:54:15.383Z,19.80
2023-01-19T20:56:42.472Z,18.00
2023-01-19T20:59:11.691Z,15.77
2023-01-19T21:01:40.912Z,12.55
2023-01-19T21:04:09.031Z,14.07
2023-01-19T21:06:36.316Z,11.00
2023-01-19T21:09:04.422Z,12.15
2023-01-19T21:11:31.495Z,9.57
2023-01-19T21:13:58.624Z,16.98
2023-01-19T21:16:29.127Z,9.98
2023-01-19T21:18:56.356Z,13.60
2023-01-19T21:21:30.826Z,15.40
2023-01-19T21:24:01.267Z,17.92
2023-01-19T21:26:33.586Z,13.00
2023-01-19T21:29:02.489Z,13.13
2023-01-19T21:31:30.237Z,12.07
2023-01-19T21:33:58.197Z,15.38
2023-01-19T21:36:26.109Z,16.48
2023-01-19T21:38:55.356Z,13.48
2023-01-19T21:41:22.435Z,18.70
2023-01-19T21:43:49.318Z,14.57
2023-01-19T21:46:29.543Z,12.35
2023-01-19T21:49:00.011Z,13.38
2023-01-19T21:51:35.033Z,17.92
2023-01-19T21:54:04.224Z,17.85
2023-01-19T21:56:31.780Z,15.60
2023-01-19T21:59:02.169Z,12.65
2023-01-19T22:01:30.508Z,15.68
2023-01-19T22:03:58.945Z,22.45
2023-01-19T22:06:27.215Z,15.60
2023-01-19T22:08:54.933Z,15.68
2023-01-19T22:11:22.095Z,19.70
2023-01-19T22:13:49.035Z,26.02
2023-01-19T22:16:19.903Z,22.30
2023-01-19T22:18:53.956Z,19.13
2023-01-19T22:21:24.802Z,17.40
2023-01-19T22:23:55.485Z,14.18
2023-01-19T22:26:23.433Z,22.63
2023-01-19T22:28:59.028Z,21.13
2023-01-19T22:31:29.166Z,17.33
2023-01-19T22:33:57.375Z,17.05
2023-01-19T22:36:28.923Z,14.85
2023-01-19T22:38:58.626Z,17.75
2023-01-19T22:41:29.715Z,19.40
2023-01-19T22:44:00.575Z,17.20
2023-01-19T22:46:31.127Z,15.35
2023-01-19T22:48:59.554Z,24.10
2023-01-19T22:51:29.466Z,15.35
2023-01-19T22:53:56.815Z,18.15
2023-01-19T22:56:29.582Z,16.85
2023-01-19T22:58:58.237Z,21.92
2023-01-19T23:01:28.937Z,22.55
2023-01-19T23:03:56.377Z,17.50
2023-01-19T23:06:27.126Z,19.02
2023-01-19T23:09:04.888Z,20.77
2023-01-19T23:11:39.168Z,15.40
2023-01-19T23:14:09.553Z,21.70
2023-01-19T23:16:36.611Z,21.65
2023-01-19T23:19:05.233Z,19.77
2023-01-19T23:21:32.875Z,20.05
2023-01-19T23:24:02.944Z,17.98
2023-01-19T23:26:31.673Z,20.85
2023-01-19T23:29:01.768Z,16.67
2023-01-19T23:31:32.533Z,13.93
2023-01-19T23:34:03.900Z,20.15
2023-01-19T23:36:33.873Z,18.90
2023-01-19T23:39:06.377Z,14.32
2023-01-19T23:41:34.662Z,17.23
2023-01-19T23:44:02.117Z,17.20
2023-01-19T23:46:30.011Z,15.02
2023-01-19T23:48:56.975Z,15.50
2023-01-19T23:51:28.398Z,13.98
2023-01-19T23:53:57.705Z,16.08
2023-01-19T23:56:36.100Z,17.38
2023-01-19T23:59:06.042Z,12.93
